Historique des stations

Station météo de Romilly-sur-Aigre

Altitude de la station : 111 m







Données météorologiques pour le 27/02/2021
Date
Heure
Températures Humidité Point de rosée Vitesse
du vent
Direction Rafales Windchill Pression Pluviométrie
Cumul
Date
Heure
Températures Humidité Point de rosée Vitesse
du vent
Direction Rafales Windchill Pression Pluviométrie
Cumul
27/02/2021 22:413.9 °C86 %1.8 °C13 km/hNNE27 km/h1.81034 hPa0.0 mm
27/02/2021 22:264.1 °C86 %1.9 °C16 km/hNE21 km/h1.91034 hPa0.0 mm
27/02/2021 22:114.4 °C85 %2.1 °C16 km/hNNE26 km/h2.11034 hPa0.0 mm
27/02/2021 21:564.6 °C84 %2.1 °C15 km/hNE23 km/h2.11034 hPa0.0 mm
27/02/2021 21:414.7 °C84 %2.2 °C16 km/hNNE26 km/h2.21034 hPa0.0 mm
27/02/2021 21:264.9 °C83 %2.2 °C18 km/hNNE26 km/h2.21034 hPa0.0 mm
27/02/2021 21:115.2 °C83 %2.5 °C16 km/hNNE24 km/h2.51034 hPa0.0 mm
27/02/2021 20:565.3 °C82 %2.5 °C18 km/hNNE19 km/h2.51034 hPa0.0 mm
27/02/2021 20:415.6 °C81 %2.6 °C8 km/hNNE19 km/h2.61034 hPa0.0 mm
27/02/2021 20:265.7 °C81 %2.7 °C19 km/hNNE26 km/h2.71034 hPa0.0 mm
27/02/2021 20:115.8 °C80 %2.6 °C16 km/hNE24 km/h2.61034 hPa0.0 mm
27/02/2021 19:566.0 °C79 %2.6 °C16 km/hNE24 km/h2.61034 hPa0.0 mm
27/02/2021 19:416.3 °C76 %2.4 °C8 km/hNNE16 km/h2.41034 hPa0.0 mm
27/02/2021 19:266.7 °C76 %2.7 °C8 km/hNNE18 km/h2.71034 hPa0.0 mm
27/02/2021 19:117.1 °C74 %2.7 °C10 km/hNE19 km/h2.71034 hPa0.0 mm
27/02/2021 18:567.4 °C74 %3.1 °C15 km/hNNE21 km/h3.11034 hPa0.0 mm
27/02/2021 18:417.8 °C73 %3.2 °C16 km/hNE19 km/h3.21033 hPa0.0 mm
27/02/2021 18:268.4 °C71 %3.4 °C15 km/hNNE23 km/h3.41034 hPa0.0 mm
27/02/2021 18:118.9 °C68 %3.3 °C16 km/hNE21 km/h3.31034 hPa0.0 mm
27/02/2021 17:569.4 °C65 %3.1 °C16 km/hNNE31 km/h3.11034 hPa0.0 mm
27/02/2021 17:419.9 °C64 %3.4 °C23 km/hNNE35 km/h3.41034 hPa0.0 mm
27/02/2021 17:2610.3 °C63 %3.5 °C27 km/hNE34 km/h3.51034 hPa0.0 mm
27/02/2021 17:1110.5 °C60 %3.1 °C34 km/hNNE37 km/h3.11034 hPa0.0 mm
27/02/2021 16:5610.8 °C60 %3.3 °C27 km/hNE37 km/h3.31034 hPa0.0 mm
27/02/2021 16:4111.0 °C61 %3.8 °C32 km/hNNE40 km/h3.81034 hPa0.0 mm
27/02/2021 16:2611.2 °C60 %3.7 °C23 km/hNNE37 km/h3.71034 hPa0.0 mm
27/02/2021 16:1111.3 °C60 %3.8 °C27 km/hNNE37 km/h3.81034 hPa0.0 mm
27/02/2021 15:5611.2 °C61 %3.9 °C19 km/hNE37 km/h3.91034 hPa0.0 mm
27/02/2021 15:4111.3 °C62 %4.3 °C26 km/hNNE34 km/h4.31034 hPa0.0 mm
27/02/2021 15:2611.4 °C63 %4.6 °C27 km/hNNE37 km/h4.61035 hPa0.0 mm
27/02/2021 15:1111.1 °C60 %3.6 °C29 km/hNE37 km/h3.61035 hPa0.0 mm
27/02/2021 14:5611.1 °C60 %3.6 °C26 km/hNE37 km/h3.61035 hPa0.0 mm
27/02/2021 14:4111.3 °C60 %3.8 °C26 km/hENE37 km/h3.81035 hPa0.0 mm
27/02/2021 14:2611.2 °C61 %3.9 °C19 km/hNE39 km/h3.91035 hPa0.0 mm
27/02/2021 14:1110.7 °C59 %3.0 °C27 km/hENE44 km/h3.01036 hPa0.0 mm
27/02/2021 13:5610.8 °C61 %3.6 °C26 km/hNE40 km/h3.61036 hPa0.0 mm
27/02/2021 13:4110.9 °C60 %3.4 °C24 km/hENE39 km/h3.41036 hPa0.0 mm
27/02/2021 13:2611.0 °C61 %3.8 °C27 km/hNNE40 km/h3.81036 hPa0.0 mm
27/02/2021 13:1110.3 °C62 %3.4 °C23 km/hNE40 km/h3.41036 hPa0.0 mm
27/02/2021 12:5610.1 °C66 %4.0 °C21 km/hNE35 km/h4.01036 hPa0.0 mm
27/02/2021 12:419.7 °C68 %4.0 °C29 km/hNE39 km/h4.01037 hPa0.0 mm
27/02/2021 12:269.7 °C70 %4.5 °C27 km/hNNE40 km/h4.51037 hPa0.0 mm
27/02/2021 12:119.2 °C68 %3.6 °C23 km/hNE39 km/h3.61037 hPa0.0 mm
27/02/2021 11:568.7 °C73 %4.1 °C18 km/hNE39 km/h4.11037 hPa0.0 mm
27/02/2021 11:418.4 °C74 %4.0 °C27 km/hNE37 km/h4.01037 hPa0.0 mm
27/02/2021 11:268.1 °C77 %4.3 °C19 km/hNE35 km/h4.31037 hPa0.0 mm
27/02/2021 11:117.6 °C78 %4.0 °C24 km/hNE44 km/h4.01037 hPa0.0 mm
27/02/2021 10:567.3 °C80 %4.1 °C15 km/hNNE32 km/h4.11037 hPa0.0 mm
27/02/2021 10:416.7 °C82 %3.8 °C16 km/hNE27 km/h3.81037 hPa0.0 mm
27/02/2021 10:266.0 °C82 %3.2 °C21 km/hNE31 km/h3.21037 hPa0.0 mm
27/02/2021 10:115.5 °C83 %2.8 °C27 km/hNE29 km/h2.81037 hPa0.0 mm
27/02/2021 09:565.1 °C83 %2.5 °C23 km/hNNE32 km/h2.51037 hPa0.0 mm
27/02/2021 09:414.5 °C85 %2.2 °C26 km/hNNE32 km/h2.21037 hPa0.0 mm
27/02/2021 09:263.9 °C86 %1.8 °C23 km/hNNE27 km/h1.81037 hPa0.0 mm
27/02/2021 09:113.4 °C86 %1.3 °C19 km/hNE27 km/h1.31037 hPa0.0 mm
27/02/2021 08:562.9 °C87 %1.0 °C16 km/hNE21 km/h1.01037 hPa0.0 mm
27/02/2021 08:412.4 °C88 %0.6 °C18 km/hNNE21 km/h0.61037 hPa0.0 mm
27/02/2021 08:261.9 °C88 %0.2 °C16 km/hNNE24 km/h0.21037 hPa0.0 mm
27/02/2021 08:111.6 °C88 %-0.2 °C21 km/hNNE21 km/h-0.21037 hPa0.0 mm
27/02/2021 07:561.6 °C88 %-0.2 °C10 km/hNE19 km/h-0.21037 hPa0.0 mm
27/02/2021 07:411.6 °C88 %-0.2 °C15 km/hNNE19 km/h-0.21037 hPa0.0 mm
27/02/2021 07:261.7 °C88 %-0.1 °C13 km/hNNE19 km/h-0.11037 hPa0.0 mm
27/02/2021 07:111.8 °C87 %-0.1 °C21 km/hNNE21 km/h-0.11037 hPa0.0 mm
27/02/2021 06:561.9 °C87 %0.0 °C13 km/hNNE21 km/h0.01037 hPa0.0 mm
27/02/2021 06:412.2 °C86 %0.1 °C10 km/hNNE27 km/h0.11037 hPa0.0 mm
27/02/2021 06:262.2 °C87 %0.3 °C15 km/hNNE24 km/h0.31036 hPa0.0 mm
27/02/2021 06:112.2 °C86 %0.1 °C13 km/hNNE23 km/h0.11036 hPa0.0 mm
27/02/2021 05:562.4 °C86 %0.3 °C18 km/hNNE23 km/h0.31036 hPa0.0 mm
27/02/2021 05:412.4 °C86 %0.3 °C18 km/hNNE23 km/h0.31036 hPa0.0 mm
27/02/2021 05:262.4 °C86 %0.3 °C18 km/hNNE19 km/h0.31036 hPa0.0 mm
27/02/2021 05:112.4 °C86 %0.3 °C13 km/hNE18 km/h0.31036 hPa0.0 mm
27/02/2021 04:562.4 °C86 %0.3 °C15 km/hNNE23 km/h0.31036 hPa0.0 mm
27/02/2021 04:412.5 °C86 %0.4 °C16 km/hNNE23 km/h0.41036 hPa0.0 mm
27/02/2021 04:262.4 °C87 %0.5 °C16 km/hNNE26 km/h0.51036 hPa0.0 mm
27/02/2021 04:112.4 °C86 %0.3 °C13 km/hNNE23 km/h0.31036 hPa0.0 mm
27/02/2021 03:562.4 °C86 %0.3 °C8 km/hNNE19 km/h0.31036 hPa0.0 mm
27/02/2021 03:412.6 °C86 %0.4 °C13 km/hNNE18 km/h0.41036 hPa0.0 mm
27/02/2021 03:262.6 °C87 %0.6 °C15 km/hNNE18 km/h0.61036 hPa0.0 mm
27/02/2021 03:112.6 °C87 %0.6 °C10 km/hNNE19 km/h0.61037 hPa0.0 mm
27/02/2021 02:562.7 °C86 %0.6 °C8 km/hNNE18 km/h0.61037 hPa0.0 mm
27/02/2021 02:412.9 °C86 %0.8 °C15 km/hN18 km/h0.81037 hPa0.0 mm
27/02/2021 02:263.2 °C85 %0.9 °C15 km/hNNE19 km/h0.91037 hPa0.0 mm
27/02/2021 02:113.2 °C85 %0.9 °C16 km/hNNE21 km/h0.91037 hPa0.0 mm
27/02/2021 01:563.2 °C86 %1.1 °C11 km/hNNE19 km/h1.11037 hPa0.0 mm
27/02/2021 01:413.3 °C85 %1.0 °C13 km/hNNE19 km/h1.01037 hPa0.0 mm
27/02/2021 01:263.4 °C85 %1.2 °C10 km/hN19 km/h1.21037 hPa0.0 mm
27/02/2021 01:113.3 °C86 %1.2 °C18 km/hNNE21 km/h1.21037 hPa0.0 mm
27/02/2021 00:563.4 °C86 %1.3 °C13 km/hNNO18 km/h1.31037 hPa0.0 mm
27/02/2021 00:413.6 °C85 %1.3 °C6 km/hN16 km/h1.31037 hPa0.0 mm
27/02/2021 00:263.7 °C85 %1.4 °C5 km/hN16 km/h1.41037 hPa0.0 mm
27/02/2021 00:113.7 °C85 %1.4 °C10 km/hNNE16 km/h1.41037 hPa0.0 mm


Minima :

Température : 1.6 °C
Humidité : 59 %
Point de rosée : -0.2 °C
Vent moyen : 5 km/h
Windchill : -0.2
Pression atm. : 1033 hPa
Maxima :

Température : 11.4 °C
Humidité : 88 %
Point de rosée : 4.6 °C
Vent moyen : 34 km/h
Windchill : 4.6
Pression atm. : 1037 hPa
Rafales max : 44 km/h
Cumul de pluie sur 24H : 0 mm

Romilly-sur-Aigre est une commune du département Eure-et-Loir (28).
La station météorologique du réseau de l'association la plus proche de Romilly-sur-Aigre est celle de Mainvilliers
Site du propriétaire de la station : http://www.sohade.fr



Icône Facebook Association Météo Centre Icône Twitter Association Météo Centre Icône Chaîne Youtube Association Météo Centre Icône contact Association Météo Centre Icône Insta Association Météo Centre